sensor_id;sensor_type;location;lat;lon;timestamp;pressure;altitude;pressure_sealevel;temperature;humidity
77737;BME280;66903;59.926;30.404;2023-12-20T00:01:21;98435.19;;;24.93;30.75
77737;BME280;66903;59.926;30.404;2023-12-20T00:06:32;98442.59;;;24.94;31.02
77737;BME280;66903;59.926;30.404;2023-12-20T00:11:43;98445.88;;;24.96;31.05
77737;BME280;66903;59.926;30.404;2023-12-20T00:16:54;98440.63;;;24.98;30.75
77737;BME280;66903;59.926;30.404;2023-12-20T00:22:05;98440.63;;;24.98;30.65
77737;BME280;66903;59.926;30.404;2023-12-20T00:27:15;98444.72;;;24.97;30.63
77737;BME280;66903;59.926;30.404;2023-12-20T00:32:26;98426.72;;;24.97;30.77
77737;BME280;66903;59.926;30.404;2023-12-20T00:37:37;98415.31;;;24.97;31.00
77737;BME280;66903;59.926;30.404;2023-12-20T00:42:48;98405.09;;;24.96;30.70
77737;BME280;66903;59.926;30.404;2023-12-20T00:47:59;98398.53;;;24.95;30.73
77737;BME280;66903;59.926;30.404;2023-12-20T00:53:10;98413.66;;;24.96;30.57
77737;BME280;66903;59.926;30.404;2023-12-20T00:58:20;98407.56;;;24.97;30.82
77737;BME280;66903;59.926;30.404;2023-12-20T01:03:31;98389.97;;;24.95;30.47
77737;BME280;66903;59.926;30.404;2023-12-20T01:08:42;98389.22;;;24.98;30.26
77737;BME280;66903;59.926;30.404;2023-12-20T01:13:53;98372.84;;;24.95;30.38
77737;BME280;66903;59.926;30.404;2023-12-20T01:19:04;98372.84;;;24.95;30.21
77737;BME280;66903;59.926;30.404;2023-12-20T01:24:14;98409.59;;;24.97;30.20
77737;BME280;66903;59.926;30.404;2023-12-20T01:29:25;98406.38;;;24.98;30.03
77737;BME280;66903;59.926;30.404;2023-12-20T01:34:36;98396.25;;;25.01;30.04
77737;BME280;66903;59.926;30.404;2023-12-20T01:39:47;98384.44;;;25.02;29.98
77737;BME280;66903;59.926;30.404;2023-12-20T01:44:58;98367.31;;;25.02;30.03
77737;BME280;66903;59.926;30.404;2023-12-20T01:50:08;98376.34;;;25.04;29.88
77737;BME280;66903;59.926;30.404;2023-12-20T01:55:20;98368.22;;;25.06;29.70
77737;BME280;66903;59.926;30.404;2023-12-20T02:00:31;98366.56;;;25.05;29.99
77737;BME280;66903;59.926;30.404;2023-12-20T02:05:42;98365.75;;;25.05;29.72
77737;BME280;66903;59.926;30.404;2023-12-20T02:10:54;98364.44;;;25.02;30.10
77737;BME280;66903;59.926;30.404;2023-12-20T02:16:05;98363.69;;;25.05;30.30
77737;BME280;66903;59.926;30.404;2023-12-20T02:21:18;98351.09;;;25.06;29.96
77737;BME280;66903;59.926;30.404;2023-12-20T02:26:28;98371.09;;;25.06;29.71
77737;BME280;66903;59.926;30.404;2023-12-20T02:31:39;98360.84;;;25.05;29.73
77737;BME280;66903;59.926;30.404;2023-12-20T02:36:50;98372.28;;;25.05;29.70
77737;BME280;66903;59.926;30.404;2023-12-20T02:42:01;98368.59;;;25.05;29.64
77737;BME280;66903;59.926;30.404;2023-12-20T02:47:12;98354.31;;;25.05;29.47
77737;BME280;66903;59.926;30.404;2023-12-20T02:52:24;98347.41;;;25.06;29.73
77737;BME280;66903;59.926;30.404;2023-12-20T02:57:35;98346.56;;;25.05;29.48
77737;BME280;66903;59.926;30.404;2023-12-20T03:02:46;98356.81;;;25.06;29.51
77737;BME280;66903;59.926;30.404;2023-12-20T03:07:57;98343.34;;;25.07;29.96
77737;BME280;66903;59.926;30.404;2023-12-20T03:13:08;98356.44;;;25.08;29.50
77737;BME280;66903;59.926;30.404;2023-12-20T03:18:19;98346.19;;;25.07;29.37
77737;BME280;66903;59.926;30.404;2023-12-20T03:23:30;98358.00;;;25.05;29.16
77737;BME280;66903;59.926;30.404;2023-12-20T03:28:42;98339.56;;;25.03;29.21
77737;BME280;66903;59.926;30.404;2023-12-20T03:33:53;98359.09;;;25.01;29.42
77737;BME280;66903;59.926;30.404;2023-12-20T03:39:04;98354.75;;;24.91;29.38
77737;BME280;66903;59.926;30.404;2023-12-20T03:44:15;98360.94;;;24.93;29.98
77737;BME280;66903;59.926;30.404;2023-12-20T03:49:26;98355.03;;;25.02;29.70
77737;BME280;66903;59.926;30.404;2023-12-20T03:54:37;98347.50;;;25.09;29.79
77737;BME280;66903;59.926;30.404;2023-12-20T03:59:48;98348.97;;;25.19;29.72
77737;BME280;66903;59.926;30.404;2023-12-20T04:04:59;98327.56;;;25.29;29.46
77737;BME280;66903;59.926;30.404;2023-12-20T04:10:10;98344.03;;;25.35;29.70
77737;BME280;66903;59.926;30.404;2023-12-20T04:15:21;98342.97;;;25.40;29.15
77737;BME280;66903;59.926;30.404;2023-12-20T04:20:31;98341.28;;;25.39;29.39
77737;BME280;66903;59.926;30.404;2023-12-20T04:25:42;98366.47;;;25.33;29.28
77737;BME280;66903;59.926;30.404;2023-12-20T04:30:53;98358.69;;;25.34;29.08
77737;BME280;66903;59.926;30.404;2023-12-20T04:36:04;98358.25;;;25.32;29.28
77737;BME280;66903;59.926;30.404;2023-12-20T04:41:15;98346.91;;;25.35;29.41
77737;BME280;66903;59.926;30.404;2023-12-20T04:46:26;98350.78;;;25.43;29.32
77737;BME280;66903;59.926;30.404;2023-12-20T04:51:37;98355.94;;;25.53;29.66
77737;BME280;66903;59.926;30.404;2023-12-20T04:56:49;98347.53;;;25.60;29.04
77737;BME280;66903;59.926;30.404;2023-12-20T05:02:03;98364.84;;;25.67;29.16
77737;BME280;66903;59.926;30.404;2023-12-20T05:07:17;98369.38;;;25.68;28.92
77737;BME280;66903;59.926;30.404;2023-12-20T05:12:27;98369.75;;;25.66;29.01
77737;BME280;66903;59.926;30.404;2023-12-20T05:17:38;98381.19;;;25.66;28.69
77737;BME280;66903;59.926;30.404;2023-12-20T05:22:49;98387.28;;;25.65;28.71
77737;BME280;66903;59.926;30.404;2023-12-20T05:28:00;98374.19;;;25.64;28.35
77737;BME280;66903;59.926;30.404;2023-12-20T05:33:12;98368.00;;;25.62;28.34
77737;BME280;66903;59.926;30.404;2023-12-20T05:38:22;98368.00;;;25.62;28.08
77737;BME280;66903;59.926;30.404;2023-12-20T05:43:33;98358.16;;;25.59;27.98
77737;BME280;66903;59.926;30.404;2023-12-20T05:48:44;98350.03;;;25.61;27.98
77737;BME280;66903;59.926;30.404;2023-12-20T05:53:55;98368.63;;;25.71;28.06
77737;BME280;66903;59.926;30.404;2023-12-20T05:59:06;98365.09;;;25.77;28.08
77737;BME280;66903;59.926;30.404;2023-12-20T06:04:17;98373.38;;;25.82;27.82
77737;BME280;66903;59.926;30.404;2023-12-20T06:09:28;98379.16;;;25.86;27.85
77737;BME280;66903;59.926;30.404;2023-12-20T06:14:38;98374.75;;;25.88;27.68
77737;BME280;66903;59.926;30.404;2023-12-20T06:19:49;98356.03;;;25.91;27.67
77737;BME280;66903;59.926;30.404;2023-12-20T06:25:00;98373.63;;;25.93;27.64
77737;BME280;66903;59.926;30.404;2023-12-20T06:30:11;98392.06;;;25.95;27.70
77737;BME280;66903;59.926;30.404;2023-12-20T06:35:22;98393.38;;;25.98;27.60
77737;BME280;66903;59.926;30.404;2023-12-20T06:46:14;98386.88;;;26.01;27.45
77737;BME280;66903;59.926;30.404;2023-12-20T06:51:25;98382.00;;;26.01;27.28
77737;BME280;66903;59.926;30.404;2023-12-20T06:56:36;98378.78;;;26.03;27.36
77737;BME280;66903;59.926;30.404;2023-12-20T07:01:50;98388.66;;;26.05;27.30
77737;BME280;66903;59.926;30.404;2023-12-20T07:07:01;98401.69;;;26.03;27.57
77737;BME280;66903;59.926;30.404;2023-12-20T07:12:12;98413.59;;;26.05;27.54
77737;BME280;66903;59.926;30.404;2023-12-20T07:17:23;98424.44;;;26.15;27.29
77737;BME280;66903;59.926;30.404;2023-12-20T07:22:34;98406.22;;;26.23;27.46
77737;BME280;66903;59.926;30.404;2023-12-20T07:27:48;98431.75;;;26.32;27.20
77737;BME280;66903;59.926;30.404;2023-12-20T07:32:59;98442.91;;;26.37;27.26
77737;BME280;66903;59.926;30.404;2023-12-20T07:38:11;98437.84;;;26.49;27.95
77737;BME280;66903;59.926;30.404;2023-12-20T07:43:22;98462.13;;;26.36;27.21
77737;BME280;66903;59.926;30.404;2023-12-20T07:48:34;98451.59;;;26.40;26.84
77737;BME280;66903;59.926;30.404;2023-12-20T07:53:46;98455.03;;;26.49;26.86
77737;BME280;66903;59.926;30.404;2023-12-20T07:58:56;98455.94;;;26.53;26.76
77737;BME280;66903;59.926;30.404;2023-12-20T08:04:07;98464.31;;;26.62;27.10
77737;BME280;66903;59.926;30.404;2023-12-20T08:09:18;98476.31;;;26.67;27.60
77737;BME280;66903;59.926;30.404;2023-12-20T08:14:29;98482.13;;;26.71;27.96
77737;BME280;66903;59.926;30.404;2023-12-20T08:19:40;98485.44;;;26.73;27.83
77737;BME280;66903;59.926;30.404;2023-12-20T08:24:52;98496.97;;;26.76;28.35
77737;BME280;66903;59.926;30.404;2023-12-20T08:30:03;98513.09;;;26.84;28.00
77737;BME280;66903;59.926;30.404;2023-12-20T08:35:14;98515.97;;;26.84;28.12
77737;BME280;66903;59.926;30.404;2023-12-20T08:40:25;98522.53;;;26.85;27.88
77737;BME280;66903;59.926;30.404;2023-12-20T08:45:36;98522.97;;;26.87;28.53
77737;BME280;66903;59.926;30.404;2023-12-20T08:50:47;98518.97;;;26.91;28.19
77737;BME280;66903;59.926;30.404;2023-12-20T08:56:00;98515.22;;;26.87;28.12
77737;BME280;66903;59.926;30.404;2023-12-20T09:01:15;98545.28;;;26.97;28.05
77737;BME280;66903;59.926;30.404;2023-12-20T09:06:26;98540.41;;;26.97;27.75
77737;BME280;66903;59.926;30.404;2023-12-20T09:11:36;98550.38;;;27.03;27.90
77737;BME280;66903;59.926;30.404;2023-12-20T09:16:47;98558.19;;;27.06;27.54
77737;BME280;66903;59.926;30.404;2023-12-20T09:21:58;98570.03;;;27.05;27.69
77737;BME280;66903;59.926;30.404;2023-12-20T09:27:09;98582.25;;;27.02;27.20
77737;BME280;66903;59.926;30.404;2023-12-20T09:32:20;98580.59;;;27.01;27.35
77737;BME280;66903;59.926;30.404;2023-12-20T09:37:33;98590.34;;;26.96;27.34
77737;BME280;66903;59.926;30.404;2023-12-20T09:42:57;98591.97;;;26.97;27.23
77737;BME280;66903;59.926;30.404;2023-12-20T09:48:10;98590.75;;;26.98;26.96
77737;BME280;66903;59.926;30.404;2023-12-20T09:53:22;98617.00;;;27.00;27.26
77737;BME280;66903;59.926;30.404;2023-12-20T09:58:39;98633.09;;;27.05;27.21
77737;BME280;66903;59.926;30.404;2023-12-20T10:03:54;98638.91;;;27.08;26.65
77737;BME280;66903;59.926;30.404;2023-12-20T10:09:05;98647.03;;;27.06;26.79
77737;BME280;66903;59.926;30.404;2023-12-20T10:14:16;98658.97;;;27.08;26.77
77737;BME280;66903;59.926;30.404;2023-12-20T10:19:27;98649.16;;;27.09;26.64
77737;BME280;66903;59.926;30.404;2023-12-20T10:24:39;98672.84;;;27.06;26.87
77737;BME280;66903;59.926;30.404;2023-12-20T10:29:51;98675.31;;;27.08;26.70
77737;BME280;66903;59.926;30.404;2023-12-20T10:35:02;98673.22;;;27.05;26.45
77737;BME280;66903;59.926;30.404;2023-12-20T10:40:14;98689.28;;;27.09;26.73
77737;BME280;66903;59.926;30.404;2023-12-20T10:45:25;98686.78;;;27.08;26.52
77737;BME280;66903;59.926;30.404;2023-12-20T10:50:37;98698.34;;;27.11;26.56
77737;BME280;66903;59.926;30.404;2023-12-20T10:55:55;98702.84;;;27.12;26.43
77737;BME280;66903;59.926;30.404;2023-12-20T11:01:07;98711.81;;;27.11;26.24
77737;BME280;66903;59.926;30.404;2023-12-20T11:12:13;98737.69;;;27.14;25.70
77737;BME280;66903;59.926;30.404;2023-12-20T11:17:29;98733.94;;;27.10;26.15
77737;BME280;66903;59.926;30.404;2023-12-20T11:22:52;98739.69;;;27.10;25.53
77737;BME280;66903;59.926;30.404;2023-12-20T11:28:08;98748.72;;;27.12;26.07
77737;BME280;66903;59.926;30.404;2023-12-20T11:33:23;98764.25;;;27.11;25.88
77737;BME280;66903;59.926;30.404;2023-12-20T11:38:37;98764.25;;;27.11;25.81
77737;BME280;66903;59.926;30.404;2023-12-20T11:43:48;98765.91;;;27.12;25.88
77737;BME280;66903;59.926;30.404;2023-12-20T11:49:00;98757.69;;;27.11;25.91
77737;BME280;66903;59.926;30.404;2023-12-20T11:54:11;98757.22;;;27.09;25.65
77737;BME280;66903;59.926;30.404;2023-12-20T11:59:24;98771.22;;;27.10;25.90
77737;BME280;66903;59.926;30.404;2023-12-20T12:04:34;98768.69;;;27.09;25.57
77737;BME280;66903;59.926;30.404;2023-12-20T12:09:45;98785.53;;;27.10;25.71
77737;BME280;66903;59.926;30.404;2023-12-20T12:14:57;98789.22;;;27.11;26.08
77737;BME280;66903;59.926;30.404;2023-12-20T12:20:08;98792.91;;;27.11;26.12
77737;BME280;66903;59.926;30.404;2023-12-20T12:25:22;98808.38;;;27.07;26.09
77737;BME280;66903;59.926;30.404;2023-12-20T12:30:33;98817.22;;;27.02;25.78
77737;BME280;66903;59.926;30.404;2023-12-20T12:35:44;98826.59;;;26.99;25.52
77737;BME280;66903;59.926;30.404;2023-12-20T12:40:55;98834.81;;;27.00;25.87
77737;BME280;66903;59.926;30.404;2023-12-20T12:46:06;98843.03;;;27.02;25.74
77737;BME280;66903;59.926;30.404;2023-12-20T12:51:17;98844.34;;;27.04;25.35
77737;BME280;66903;59.926;30.404;2023-12-20T12:56:27;98850.53;;;27.06;25.90
77737;BME280;66903;59.926;30.404;2023-12-20T13:01:38;98855.88;;;27.08;25.33
77737;BME280;66903;59.926;30.404;2023-12-20T13:06:49;98866.13;;;27.09;25.57
77737;BME280;66903;59.926;30.404;2023-12-20T13:12:00;98860.06;;;27.10;25.78
77737;BME280;66903;59.926;30.404;2023-12-20T13:17:14;98868.28;;;27.12;25.57
77737;BME280;66903;59.926;30.404;2023-12-20T13:22:25;98878.91;;;27.11;25.47
77737;BME280;66903;59.926;30.404;2023-12-20T13:27:36;98894.91;;;27.12;25.77
77737;BME280;66903;59.926;30.404;2023-12-20T13:32:47;98905.56;;;27.12;25.23
77737;BME280;66903;59.926;30.404;2023-12-20T13:38:00;98894.81;;;27.09;25.42
77737;BME280;66903;59.926;30.404;2023-12-20T13:43:11;98907.19;;;27.13;25.23
77737;BME280;66903;59.926;30.404;2023-12-20T13:48:23;98907.56;;;27.11;25.57
77737;BME280;66903;59.926;30.404;2023-12-20T13:53:33;98913.22;;;27.08;25.46
77737;BME280;66903;59.926;30.404;2023-12-20T13:58:44;98911.09;;;27.05;25.48
77737;BME280;66903;59.926;30.404;2023-12-20T14:03:57;98919.78;;;27.08;25.46
77737;BME280;66903;59.926;30.404;2023-12-20T14:09:07;98933.66;;;27.06;25.91
77737;BME280;66903;59.926;30.404;2023-12-20T14:14:19;98925.06;;;27.06;25.90
77737;BME280;66903;59.926;30.404;2023-12-20T14:19:29;98929.19;;;27.09;26.05
77737;BME280;66903;59.926;30.404;2023-12-20T14:24:40;98938.25;;;27.11;26.30
77737;BME280;66903;59.926;30.404;2023-12-20T14:29:51;98927.16;;;27.09;26.33
77737;BME280;66903;59.926;30.404;2023-12-20T14:35:02;98919.78;;;27.08;26.07
77737;BME280;66903;59.926;30.404;2023-12-20T14:40:14;98934.03;;;27.05;26.61
77737;BME280;66903;59.926;30.404;2023-12-20T14:45:29;98923.75;;;27.04;26.88
77737;BME280;66903;59.926;30.404;2023-12-20T14:50:40;98930.41;;;27.08;26.45
77737;BME280;66903;59.926;30.404;2023-12-20T14:55:52;98935.59;;;27.02;26.37
77737;BME280;66903;59.926;30.404;2023-12-20T15:01:03;98954.69;;;26.98;26.59
77737;BME280;66903;59.926;30.404;2023-12-20T15:06:14;98954.81;;;27.02;26.50
77737;BME280;66903;59.926;30.404;2023-12-20T15:11:25;98966.25;;;27.02;26.83
77737;BME280;66903;59.926;30.404;2023-12-20T15:16:36;98957.13;;;26.96;26.50
77737;BME280;66903;59.926;30.404;2023-12-20T15:21:47;98964.63;;;27.01;26.56
77737;BME280;66903;59.926;30.404;2023-12-20T15:26:58;98966.25;;;27.02;26.38
77737;BME280;66903;59.926;30.404;2023-12-20T15:32:09;98967.09;;;27.02;26.46
77737;BME280;66903;59.926;30.404;2023-12-20T15:37:20;98970.72;;;26.99;26.75
77737;BME280;66903;59.926;30.404;2023-12-20T15:42:30;98973.38;;;26.92;26.83
77737;BME280;66903;59.926;30.404;2023-12-20T15:47:42;98984.09;;;26.95;26.95
77737;BME280;66903;59.926;30.404;2023-12-20T15:52:54;98992.81;;;26.99;26.93
77737;BME280;66903;59.926;30.404;2023-12-20T15:58:06;98993.66;;;26.99;27.05
77737;BME280;66903;59.926;30.404;2023-12-20T16:03:17;99001.97;;;27.04;27.05
77737;BME280;66903;59.926;30.404;2023-12-20T16:08:28;99008.44;;;27.01;27.46
77737;BME280;66903;59.926;30.404;2023-12-20T16:13:38;99021.84;;;26.97;27.47
77737;BME280;66903;59.926;30.404;2023-12-20T16:18:49;99024.31;;;26.99;27.39
77737;BME280;66903;59.926;30.404;2023-12-20T16:24:00;99030.91;;;26.99;27.32
77737;BME280;66903;59.926;30.404;2023-12-20T16:29:11;99038.19;;;26.97;27.25
77737;BME280;66903;59.926;30.404;2023-12-20T16:34:23;99039.75;;;26.94;26.90
77737;BME280;66903;59.926;30.404;2023-12-20T16:39:34;99052.13;;;26.98;26.78
77737;BME280;66903;59.926;30.404;2023-12-20T16:44:45;99049.66;;;26.97;27.11
77737;BME280;66903;59.926;30.404;2023-12-20T16:49:56;99048.25;;;26.91;27.04
77737;BME280;66903;59.926;30.404;2023-12-20T16:55:09;99054.09;;;26.94;27.12
77737;BME280;66903;59.926;30.404;2023-12-20T17:00:21;99055.16;;;26.90;27.06
77737;BME280;66903;59.926;30.404;2023-12-20T17:05:33;99055.75;;;26.95;27.61
77737;BME280;66903;59.926;30.404;2023-12-20T17:10:44;99063.88;;;26.93;27.27
77737;BME280;66903;59.926;30.404;2023-12-20T17:15:55;99056.81;;;26.75;27.40
77737;BME280;66903;59.926;30.404;2023-12-20T17:21:06;99074.44;;;26.65;27.32
77737;BME280;66903;59.926;30.404;2023-12-20T17:26:20;99072.09;;;26.55;27.26
77737;BME280;66903;59.926;30.404;2023-12-20T17:31:33;99058.78;;;26.47;27.09
77737;BME280;66903;59.926;30.404;2023-12-20T17:36:45;99059.34;;;26.41;26.95
77737;BME280;66903;59.926;30.404;2023-12-20T17:41:57;99056.75;;;26.36;27.31
77737;BME280;66903;59.926;30.404;2023-12-20T17:47:08;99064.84;;;26.34;27.36
77737;BME280;66903;59.926;30.404;2023-12-20T17:52:19;99067.59;;;26.30;27.35
77737;BME280;66903;59.926;30.404;2023-12-20T17:57:30;99070.94;;;26.32;27.17
77737;BME280;66903;59.926;30.404;2023-12-20T18:02:40;99070.94;;;26.32;27.40
77737;BME280;66903;59.926;30.404;2023-12-20T18:07:51;99072.16;;;26.31;27.62
77737;BME280;66903;59.926;30.404;2023-12-20T18:13:03;99076.56;;;26.29;27.37
77737;BME280;66903;59.926;30.404;2023-12-20T18:18:14;99064.28;;;26.28;27.45
77737;BME280;66903;59.926;30.404;2023-12-20T18:23:25;99072.97;;;26.32;27.40
77737;BME280;66903;59.926;30.404;2023-12-20T18:28:36;99063.81;;;26.26;27.51
77737;BME280;66903;59.926;30.404;2023-12-20T18:33:47;99063.34;;;26.24;27.41
77737;BME280;66903;59.926;30.404;2023-12-20T18:38:58;99046.06;;;26.20;27.35
77737;BME280;66903;59.926;30.404;2023-12-20T18:44:09;99053.31;;;26.18;27.69
77737;BME280;66903;59.926;30.404;2023-12-20T18:49:20;99058.31;;;26.21;27.78
77737;BME280;66903;59.926;30.404;2023-12-20T18:54:33;99061.78;;;26.27;28.72
77737;BME280;66903;59.926;30.404;2023-12-20T18:59:46;99066.91;;;26.33;28.45
77737;BME280;66903;59.926;30.404;2023-12-20T19:04:58;99066.28;;;26.40;29.65
77737;BME280;66903;59.926;30.404;2023-12-20T19:10:09;99076.28;;;26.46;30.42
77737;BME280;66903;59.926;30.404;2023-12-20T19:15:20;99075.22;;;26.50;29.55
77737;BME280;66903;59.926;30.404;2023-12-20T19:20:31;99079.75;;;26.51;29.47
77737;BME280;66903;59.926;30.404;2023-12-20T19:25:42;99072.00;;;26.52;29.56
77737;BME280;66903;59.926;30.404;2023-12-20T19:30:52;99077.84;;;26.43;29.29
77737;BME280;66903;59.926;30.404;2023-12-20T19:36:09;99091.44;;;26.46;29.83
77737;BME280;66903;59.926;30.404;2023-12-20T19:41:20;99093.03;;;26.44;30.18
77737;BME280;66903;59.926;30.404;2023-12-20T19:46:31;99088.59;;;26.46;30.23
77737;BME280;66903;59.926;30.404;2023-12-20T19:51:42;99094.31;;;26.46;30.16
77737;BME280;66903;59.926;30.404;2023-12-20T19:56:53;99084.75;;;26.42;30.16
77737;BME280;66903;59.926;30.404;2023-12-20T20:02:03;99104.34;;;26.40;29.71
77737;BME280;66903;59.926;30.404;2023-12-20T20:07:14;99092.06;;;26.40;30.45
77737;BME280;66903;59.926;30.404;2023-12-20T20:12:25;99109.34;;;26.43;29.67
77737;BME280;66903;59.926;30.404;2023-12-20T20:17:36;99100.75;;;26.43;29.41
77737;BME280;66903;59.926;30.404;2023-12-20T20:22:49;99100.50;;;26.48;28.97
77737;BME280;66903;59.926;30.404;2023-12-20T20:28:01;99100.28;;;26.41;29.61
77737;BME280;66903;59.926;30.404;2023-12-20T20:33:11;99095.78;;;26.40;29.46
77737;BME280;66903;59.926;30.404;2023-12-20T20:38:22;99093.59;;;26.37;30.51
77737;BME280;66903;59.926;30.404;2023-12-20T20:43:33;99092.31;;;26.35;30.12
77737;BME280;66903;59.926;30.404;2023-12-20T20:48:45;99093.84;;;26.32;30.09
77737;BME280;66903;59.926;30.404;2023-12-20T20:53:56;99091.00;;;26.32;30.23
77737;BME280;66903;59.926;30.404;2023-12-20T20:59:07;99096.47;;;26.37;30.52
77737;BME280;66903;59.926;30.404;2023-12-20T21:04:18;99093.72;;;26.41;31.58
77737;BME280;66903;59.926;30.404;2023-12-20T21:09:29;99095.63;;;26.49;32.21
77737;BME280;66903;59.926;30.404;2023-12-20T21:14:39;99082.59;;;26.51;32.06
77737;BME280;66903;59.926;30.404;2023-12-20T21:19:50;99082.59;;;26.51;32.18
77737;BME280;66903;59.926;30.404;2023-12-20T21:25:01;99080.09;;;26.50;32.30
77737;BME280;66903;59.926;30.404;2023-12-20T21:30:15;99083.81;;;26.50;32.12
77737;BME280;66903;59.926;30.404;2023-12-20T21:35:26;99082.13;;;26.49;32.15
77737;BME280;66903;59.926;30.404;2023-12-20T21:40:37;99096.00;;;26.47;31.44
77737;BME280;66903;59.926;30.404;2023-12-20T21:45:47;99090.06;;;26.16;28.06
77737;BME280;66903;59.926;30.404;2023-12-20T21:50:58;99088.41;;;23.35;28.93
77737;BME280;66903;59.926;30.404;2023-12-20T21:56:09;99087.50;;;20.58;31.38
77737;BME280;66903;59.926;30.404;2023-12-20T22:01:21;99082.53;;;18.79;32.54
77737;BME280;66903;59.926;30.404;2023-12-20T22:06:32;99069.91;;;18.39;35.48
77737;BME280;66903;59.926;30.404;2023-12-20T22:11:42;99059.22;;;19.96;34.45
77737;BME280;66903;59.926;30.404;2023-12-20T22:16:54;99059.13;;;21.42;32.84
77737;BME280;66903;59.926;30.404;2023-12-20T22:22:04;99053.66;;;22.53;31.95
77737;BME280;66903;59.926;30.404;2023-12-20T22:27:15;99049.91;;;23.29;31.27
77737;BME280;66903;59.926;30.404;2023-12-20T22:32:26;99029.22;;;23.78;30.18
77737;BME280;66903;59.926;30.404;2023-12-20T22:37:38;99037.63;;;24.25;30.27
77737;BME280;66903;59.926;30.404;2023-12-20T22:42:49;99030.53;;;24.51;30.04
77737;BME280;66903;59.926;30.404;2023-12-20T22:48:01;99026.66;;;24.76;29.73
77737;BME280;66903;59.926;30.404;2023-12-20T22:53:12;99031.69;;;24.91;29.92
77737;BME280;66903;59.926;30.404;2023-12-20T22:58:25;99015.28;;;25.00;29.85
77737;BME280;66903;59.926;30.404;2023-12-20T23:03:36;99006.75;;;25.12;29.78
77737;BME280;66903;59.926;30.404;2023-12-20T23:08:47;99003.78;;;25.21;29.57
77737;BME280;66903;59.926;30.404;2023-12-20T23:13:58;98997.50;;;25.28;29.64
77737;BME280;66903;59.926;30.404;2023-12-20T23:19:09;98988.34;;;25.34;29.65
77737;BME280;66903;59.926;30.404;2023-12-20T23:24:21;98988.13;;;25.39;29.64
77737;BME280;66903;59.926;30.404;2023-12-20T23:29:32;98975.97;;;25.42;29.53
77737;BME280;66903;59.926;30.404;2023-12-20T23:34:42;98967.50;;;25.46;29.47
77737;BME280;66903;59.926;30.404;2023-12-20T23:39:53;98964.66;;;25.46;29.60
77737;BME280;66903;59.926;30.404;2023-12-20T23:45:06;98956.56;;;25.48;29.66
77737;BME280;66903;59.926;30.404;2023-12-20T23:50:17;98961.59;;;25.51;29.50
77737;BME280;66903;59.926;30.404;2023-12-20T23:55:28;98953.94;;;25.55;29.21
